Time;durP1;ratioP1;P1;durP2;ratioP2;P2;SDS_P1;SDS_P2;PMS_P1;PMS_P2;Temp;Humidity;BMP_temperature;BMP_pressure;BME280_temperature;BME280_humidity;BME280_pressure;Samples;Min_cycle;Max_cycle;Signal;HPM_P1;HPM_P2
2023/02/15 00:01:36;;;;;;;51.42;34.33;;;2.70;99.90;;;;;;5052973;28;20776;-60
2023/02/15 00:04:03;;;;;;;49.83;31.85;;;2.70;99.90;;;;;;5053150;28;20402;-60
2023/02/15 00:06:30;;;;;;;44.85;28.58;;;2.70;99.90;;;;;;5053490;28;20072;-60
2023/02/15 00:08:55;;;;;;;48.13;29.23;;;2.70;99.90;;;;;;5053185;28;20134;-60
2023/02/15 00:11:40;;;;;;;47.03;28.15;;;2.60;99.90;;;;;;5053177;28;20090;-60
2023/02/15 00:14:07;;;;;;;52.08;29.85;;;2.60;99.90;;;;;;5052901;28;20372;-60
2023/02/15 00:16:32;;;;;;;47.03;28.50;;;2.50;99.90;;;;;;5052795;28;20472;-60
2023/02/15 00:19:01;;;;;;;48.55;29.52;;;2.60;99.90;;;;;;5053017;28;20052;-60
2023/02/15 00:21:31;;;;;;;52.00;29.10;;;2.50;99.90;;;;;;5052791;28;20045;-60
2023/02/15 00:23:58;;;;;;;49.83;30.23;;;2.40;99.90;;;;;;5053242;28;20116;-60
2023/02/15 00:26:24;;;;;;;37.67;22.42;;;2.50;99.90;;;;;;5052996;28;20045;-60
2023/02/15 00:28:50;;;;;;;29.77;20.83;;;2.40;99.90;;;;;;5052553;28;20041;-60
2023/02/15 00:31:16;;;;;;;43.20;24.88;;;2.40;99.90;;;;;;5051541;28;20381;-59
2023/02/15 00:33:41;;;;;;;36.38;24.50;;;2.40;99.90;;;;;;5052791;28;20037;-60
2023/02/15 00:36:09;;;;;;;26.60;18.17;;;2.40;99.90;;;;;;5052477;28;20505;-60
2023/02/15 00:38:35;;;;;;;28.00;18.08;;;2.20;99.90;;;;;;5052599;28;20041;-60
2023/02/15 00:41:04;;;;;;;24.95;17.38;;;2.30;99.90;;;;;;5052399;28;20048;-60
2023/02/15 00:43:31;;;;;;;21.88;15.52;;;2.20;99.90;;;;;;5052682;28;20047;-60
2023/02/15 00:45:58;;;;;;;18.75;13.20;;;2.20;99.90;;;;;;5051724;28;20179;-60
2023/02/15 00:48:24;;;;;;;18.92;13.32;;;2.10;99.90;;;;;;5052263;28;20043;-60
2023/02/15 00:50:52;;;;;;;17.00;12.90;;;2.20;99.90;;;;;;5052392;28;20535;-60
2023/02/15 00:53:18;;;;;;;19.05;12.40;;;2.10;99.90;;;;;;5052674;28;20041;-60
2023/02/15 00:55:44;;;;;;;15.70;12.20;;;2.10;99.90;;;;;;5052184;28;20041;-60
2023/02/15 00:58:11;;;;;;;15.40;12.40;;;2.20;99.90;;;;;;5052248;28;20040;-60
2023/02/15 01:00:38;;;;;;;13.55;12.13;;;2.10;99.90;;;;;;5052224;28;20123;-60
2023/02/15 01:03:04;;;;;;;15.32;13.20;;;2.00;99.90;;;;;;5052177;28;20044;-60
2023/02/15 01:05:32;;;;;;;15.77;13.57;;;2.00;99.90;;;;;;5052167;28;20040;-60
2023/02/15 01:07:58;;;;;;;16.77;13.65;;;1.90;99.90;;;;;;5052116;28;20426;-59
2023/02/15 01:10:24;;;;;;;17.92;14.88;;;1.90;99.90;;;;;;5052208;28;20076;-60
2023/02/15 01:12:51;;;;;;;17.65;14.07;;;2.00;99.90;;;;;;5051111;28;20049;-60
2023/02/15 01:15:17;;;;;;;19.75;16.15;;;1.90;99.90;;;;;;5052303;28;20059;-60
2023/02/15 01:17:45;;;;;;;20.50;15.10;;;2.00;99.90;;;;;;5052032;28;20037;-60
2023/02/15 01:20:11;;;;;;;20.10;15.35;;;1.90;99.90;;;;;;5052176;28;20087;-60
2023/02/15 01:22:37;;;;;;;19.40;15.32;;;2.00;99.90;;;;;;5051900;28;20092;-60
2023/02/15 01:25:03;;;;;;;22.10;16.33;;;1.80;99.90;;;;;;5051868;28;20073;-59
2023/02/15 01:27:30;;;;;;;21.15;17.23;;;1.80;99.90;;;;;;5051910;28;20037;-59
2023/02/15 01:29:56;;;;;;;22.90;16.60;;;1.70;99.90;;;;;;5052058;28;20033;-59
2023/02/15 01:32:22;;;;;;;19.60;16.48;;;1.70;99.90;;;;;;5052143;28;20479;-59
2023/02/15 01:34:48;;;;;;;23.02;17.73;;;1.60;99.90;;;;;;5051835;28;20068;-60
2023/02/15 01:37:14;;;;;;;22.55;17.58;;;1.60;99.90;;;;;;5051738;28;20095;-60
2023/02/15 01:39:39;;;;;;;23.10;17.83;;;1.70;99.90;;;;;;5052083;28;20125;-60
2023/02/15 01:42:05;;;;;;;22.00;17.23;;;1.50;99.90;;;;;;5051622;28;20045;-60
2023/02/15 01:44:51;;;;;;;23.27;18.02;;;1.50;99.90;;;;;;5051804;28;20107;-60
2023/02/15 01:47:35;;;;;;;23.58;17.35;;;1.60;99.90;;;;;;5052101;28;20049;-60
2023/02/15 01:50:26;;;;;;;24.42;18.10;;;1.50;99.90;;;;;;5051739;28;20041;-60
2023/02/15 01:53:03;;;;;;;21.25;16.40;;;1.50;99.90;;;;;;5052025;28;20156;-60
2023/02/15 01:55:41;;;;;;;22.70;17.45;;;1.50;99.90;;;;;;5051755;28;20052;-59
2023/02/15 01:58:07;;;;;;;27.20;16.98;;;1.50;99.90;;;;;;5053293;28;20071;-60
2023/02/15 02:00:34;;;;;;;22.17;17.65;;;1.40;99.90;;;;;;5055451;28;20475;-60
2023/02/15 02:03:01;;;;;;;23.40;18.08;;;1.40;99.90;;;;;;5055451;28;20122;-60
2023/02/15 02:05:28;;;;;;;23.55;18.13;;;1.40;99.90;;;;;;5055781;28;20055;-59
2023/02/15 02:07:58;;;;;;;19.85;16.63;;;1.40;99.90;;;;;;5055817;28;20044;-60
2023/02/15 02:10:24;;;;;;;21.02;17.10;;;1.40;99.90;;;;;;5055299;28;20044;-60
2023/02/15 02:12:54;;;;;;;23.15;17.95;;;1.40;99.90;;;;;;5055439;28;20491;-59
2023/02/15 02:15:29;;;;;;;25.05;17.98;;;1.50;99.90;;;;;;5055142;28;20090;-59
2023/02/15 02:18:14;;;;;;;25.73;19.58;;;1.50;99.90;;;;;;5055042;28;20045;-60
2023/02/15 02:20:48;;;;;;;26.88;20.05;;;1.50;99.90;;;;;;5055293;28;20128;-59
2023/02/15 02:23:47;;;;;;;28.00;20.55;;;1.40;99.90;;;;;;5055032;28;20472;-59
2023/02/15 02:26:43;;;;;;;30.67;21.60;;;1.30;99.90;;;;;;5055190;28;20044;-59
2023/02/15 02:29:27;;;;;;;43.25;23.92;;;1.40;99.90;;;;;;5055166;28;20037;-59
2023/02/15 02:32:11;;;;;;;38.95;23.60;;;1.40;99.90;;;;;;5054852;28;20055;-59
2023/02/15 02:34:50;;;;;;;93.38;27.88;;;1.50;99.90;;;;;;5054786;28;20513;-59
2023/02/15 02:37:42;;;;;;;41.13;24.08;;;1.60;99.90;;;;;;5053649;28;20609;-59
2023/02/15 02:40:34;;;;;;;62.17;27.58;;;1.60;99.90;;;;;;5054801;28;20124;-59
2023/02/15 02:43:07;;;;;;;81.75;27.30;;;1.40;99.90;;;;;;5054730;28;20116;-60
2023/02/15 02:45:40;;;;;;;88.70;26.63;;;1.40;99.90;;;;;;5054444;28;20503;-60
2023/02/15 02:48:15;;;;;;;67.03;26.40;;;1.30;99.90;;;;;;5055115;28;20040;-60
2023/02/15 02:50:41;;;;;;;68.43;26.75;;;1.20;99.90;;;;;;5054626;28;20094;-60
2023/02/15 02:53:09;;;;;;;76.07;27.38;;;1.40;99.90;;;;;;5054633;28;20068;-60
2023/02/15 02:55:51;;;;;;;66.85;26.02;;;1.20;99.90;;;;;;5054633;28;20124;-60
2023/02/15 02:58:25;;;;;;;79.30;27.38;;;1.20;99.90;;;;;;5054565;28;20048;-60
2023/02/15 03:00:55;;;;;;;52.17;26.75;;;1.20;99.90;;;;;;5053071;28;20494;-60
2023/02/15 03:03:29;;;;;;;93.28;27.13;;;1.20;99.90;;;;;;5054160;28;20040;-60
2023/02/15 03:05:59;;;;;;;39.53;26.17;;;1.30;99.90;;;;;;5054407;28;20484;-60
2023/02/15 03:08:32;;;;;;;40.80;25.83;;;1.40;99.90;;;;;;5052949;28;20170;-60
2023/02/15 03:11:01;;;;;;;74.57;27.73;;;1.20;99.90;;;;;;5053687;28;20049;-60
2023/02/15 03:13:28;;;;;;;57.28;29.45;;;1.20;99.90;;;;;;5054104;28;20044;-60
2023/02/15 03:18:52;;;;;;;59.38;25.40;;;1.30;99.90;;;;;;5053846;28;20121;-59
2023/02/15 03:21:23;;;;;;;47.78;26.20;;;1.10;99.90;;;;;;5054003;28;20419;-59
2023/02/15 03:23:57;;;;;;;44.45;25.98;;;1.10;99.90;;;;;;5054088;28;20485;-59
2023/02/15 03:26:25;;;;;;;80.38;27.67;;;1.30;99.90;;;;;;5054073;28;20448;-59
2023/02/15 03:28:55;;;;;;;38.95;26.20;;;1.10;99.90;;;;;;5053677;28;20479;-59
2023/02/15 03:31:24;;;;;;;38.78;26.02;;;1.20;99.90;;;;;;5053934;28;20071;-59
2023/02/15 03:34:03;;;;;;;38.65;25.83;;;1.10;99.90;;;;;;5054023;28;20052;-60
2023/02/15 03:36:39;;;;;;;37.50;24.58;;;1.20;99.90;;;;;;5053897;28;20053;-60
2023/02/15 03:39:26;;;;;;;38.65;24.85;;;1.40;99.90;;;;;;5053752;28;20051;-59
2023/02/15 03:42:28;;;;;;;39.60;27.17;;;1.10;99.90;;;;;;5053647;28;20442;-60
2023/02/15 03:45:05;;;;;;;36.28;26.00;;;1.20;99.90;;;;;;5011798;28;20408;-59
2023/02/15 03:47:38;;;;;;;34.78;24.55;;;1.10;99.90;;;;;;5011386;28;20563;-60
2023/02/15 03:52:59;;;;;;;37.97;25.55;;;1.20;99.90;;;;;;5011510;28;20060;-60
2023/02/15 03:55:25;;;;;;;37.33;25.58;;;1.10;99.90;;;;;;5011369;28;20058;-60
2023/02/15 04:03:36;;;;;;;40.22;25.80;;;1.00;99.90;;;;;;5011480;28;20117;-60
2023/02/15 04:06:03;;;;;;;36.72;25.52;;;1.10;99.90;;;;;;4995814;28;20046;-60
2023/02/15 04:11:12;;;;;;;37.00;24.50;;;1.00;99.90;;;;;;5011179;28;20056;-60
2023/02/15 04:13:38;;;;;;;35.90;24.40;;;1.00;99.90;;;;;;5011028;28;20451;-62
2023/02/15 04:16:04;;;;;;;36.53;26.35;;;1.10;99.90;;;;;;5010028;28;20033;-59
2023/02/15 04:26:59;;;;;;;37.20;24.73;;;1.20;99.90;;;;;;5052873;28;20037;-59
2023/02/15 04:29:26;;;;;;;35.88;25.73;;;1.10;99.90;;;;;;5051940;28;20029;-60
2023/02/15 04:31:53;;;;;;;36.10;25.75;;;1.20;99.90;;;;;;5050066;28;20415;-59
2023/02/15 04:34:18;;;;;;;37.30;26.83;;;1.10;99.90;;;;;;5051788;28;20037;-60
2023/02/15 04:36:44;;;;;;;40.10;26.83;;;1.10;99.90;;;;;;5052647;28;20037;-60
2023/02/15 04:39:13;;;;;;;38.70;26.25;;;1.10;99.90;;;;;;5052193;28;20395;-60
2023/02/15 04:41:39;;;;;;;35.42;24.98;;;1.20;99.90;;;;;;5052330;28;20568;-60
2023/02/15 04:44:04;;;;;;;37.00;27.05;;;1.20;99.90;;;;;;5052501;28;20088;-59
2023/02/15 04:46:31;;;;;;;35.38;25.50;;;1.10;99.90;;;;;;5052415;28;20395;-60
2023/02/15 04:48:57;;;;;;;35.25;24.73;;;1.10;99.90;;;;;;5052270;28;20056;-60
2023/02/15 04:51:23;;;;;;;34.22;25.25;;;1.20;99.90;;;;;;5052560;28;20051;-60
2023/02/15 04:53:49;;;;;;;39.30;24.88;;;1.10;99.90;;;;;;5052379;28;20041;-59
2023/02/15 04:56:14;;;;;;;38.40;25.33;;;1.10;99.90;;;;;;5052804;28;20045;-60
2023/02/15 04:58:41;;;;;;;36.78;25.98;;;1.00;99.90;;;;;;5051985;28;20544;-59
2023/02/15 05:01:10;;;;;;;40.38;25.50;;;1.10;99.90;;;;;;5049989;28;20513;-59
2023/02/15 05:03:36;;;;;;;37.78;26.90;;;1.10;99.90;;;;;;5050153;28;20064;-60
2023/02/15 05:06:03;;;;;;;34.97;24.70;;;1.10;99.90;;;;;;5050545;28;20121;-60
2023/02/15 05:08:30;;;;;;;38.65;27.48;;;1.10;99.90;;;;;;5052159;28;20517;-60
2023/02/15 05:10:56;;;;;;;36.42;26.67;;;1.10;99.90;;;;;;5051936;28;20044;-59
2023/02/15 05:13:21;;;;;;;37.92;26.15;;;1.20;99.90;;;;;;5052055;28;20102;-59
2023/02/15 05:15:52;;;;;;;40.75;26.83;;;1.10;99.90;;;;;;5051950;28;20461;-59
2023/02/15 05:18:19;;;;;;;36.53;25.73;;;1.10;99.90;;;;;;5051994;28;20057;-59
2023/02/15 05:20:44;;;;;;;38.20;26.75;;;1.10;99.90;;;;;;5051672;28;20053;-59
2023/02/15 05:23:11;;;;;;;40.33;27.02;;;1.10;99.90;;;;;;5050566;28;20051;-60
2023/02/15 05:28:23;;;;;;;35.67;24.88;;;1.00;99.90;;;;;;5051814;28;20039;-61
2023/02/15 05:30:50;;;;;;;33.80;24.45;;;1.10;99.90;;;;;;5049744;28;20071;-60
2023/02/15 05:33:16;;;;;;;38.17;27.10;;;1.10;99.90;;;;;;5049554;28;20036;-59
2023/02/15 05:35:42;;;;;;;36.47;27.15;;;1.10;99.90;;;;;;5054838;28;20047;-59
2023/02/15 05:38:08;;;;;;;40.33;27.85;;;1.30;99.90;;;;;;5055889;28;20045;-59
2023/02/15 05:40:34;;;;;;;44.58;30.38;;;1.30;99.90;;;;;;5055880;28;20044;-59
2023/02/15 05:43:00;;;;;;;44.08;29.63;;;1.20;99.90;;;;;;5054965;28;20442;-59
2023/02/15 05:45:26;;;;;;;42.22;29.15;;;1.20;99.90;;;;;;5056239;28;20116;-60
2023/02/15 05:47:51;;;;;;;47.88;31.55;;;1.20;99.90;;;;;;5055992;28;20064;-60
2023/02/15 05:50:17;;;;;;;46.65;32.25;;;1.30;99.90;;;;;;5055755;28;20475;-59
2023/02/15 05:52:43;;;;;;;55.03;35.58;;;1.30;99.90;;;;;;5055592;28;20124;-60
2023/02/15 05:55:08;;;;;;;61.30;39.55;;;1.50;99.90;;;;;;5055831;28;20046;-61
2023/02/15 05:57:35;;;;;;;62.58;39.90;;;1.60;99.90;;;;;;5055800;28;20040;-60
2023/02/15 06:00:04;;;;;;;64.95;39.58;;;1.80;99.90;;;;;;5054215;28;20075;-60
2023/02/15 06:02:32;;;;;;;68.47;42.13;;;1.60;99.90;;;;;;5052879;28;20048;-59
2023/02/15 06:04:58;;;;;;;61.30;40.03;;;1.60;99.90;;;;;;5053669;28;20048;-60
2023/02/15 06:07:24;;;;;;;66.53;41.13;;;1.90;99.90;;;;;;5055456;28;20391;-60
2023/02/15 06:09:50;;;;;;;64.70;40.95;;;2.00;99.90;;;;;;5055388;28;20037;-59
2023/02/15 06:12:15;;;;;;;66.18;41.95;;;2.00;99.90;;;;;;5055359;28;20040;-59
2023/02/15 06:14:41;;;;;;;66.05;40.72;;;2.10;99.90;;;;;;5055319;28;20455;-59
2023/02/15 06:17:07;;;;;;;74.10;45.30;;;1.90;99.90;;;;;;5055289;28;20095;-60
2023/02/15 06:19:32;;;;;;;66.38;42.75;;;1.80;99.90;;;;;;5055064;28;20492;-59
2023/02/15 06:21:58;;;;;;;83.22;47.47;;;2.10;99.90;;;;;;5053030;28;20048;-59
2023/02/15 06:24:24;;;;;;;77.85;47.53;;;2.10;99.90;;;;;;5053849;28;20083;-59
2023/02/15 06:26:49;;;;;;;78.35;46.78;;;1.90;99.90;;;;;;5036419;28;20044;-59
2023/02/15 06:29:15;;;;;;;91.35;51.55;;;2.10;99.90;;;;;;5054630;28;20395;-59
2023/02/15 06:31:41;;;;;;;79.57;47.65;;;2.00;99.90;;;;;;5055109;28;20037;-59
2023/02/15 06:34:07;;;;;;;73.45;47.22;;;2.00;99.90;;;;;;5055162;28;20124;-59
2023/02/15 06:36:32;;;;;;;86.50;49.67;;;2.10;99.90;;;;;;5054890;28;20173;-59
2023/02/15 06:38:58;;;;;;;81.97;48.30;;;2.20;99.90;;;;;;5054656;28;20044;-59
2023/02/15 06:41:23;;;;;;;80.97;48.63;;;2.00;99.90;;;;;;5054708;28;20470;-60
2023/02/15 06:43:50;;;;;;;73.15;44.72;;;2.30;99.90;;;;;;5053651;28;20108;-59
2023/02/15 06:46:15;;;;;;;70.55;43.45;;;2.30;99.90;;;;;;5054415;28;20423;-59
2023/02/15 06:48:41;;;;;;;64.50;41.25;;;1.90;99.90;;;;;;5054309;28;20040;-59
2023/02/15 06:51:07;;;;;;;71.50;42.83;;;2.30;99.90;;;;;;5054276;28;20183;-59
2023/02/15 06:53:33;;;;;;;74.07;43.13;;;1.90;99.90;;;;;;5054207;28;20522;-59
2023/02/15 06:56:08;;;;;;;65.28;39.90;;;2.00;99.90;;;;;;5054746;28;20406;-59
2023/02/15 06:58:38;;;;;;;58.42;37.85;;;2.00;99.90;;;;;;5053122;28;20372;-59
2023/02/15 07:01:05;;;;;;;65.55;40.72;;;2.00;99.90;;;;;;5052985;28;20041;-59
2023/02/15 07:03:31;;;;;;;68.32;41.38;;;2.00;99.90;;;;;;5052812;28;20467;-59
2023/02/15 07:05:59;;;;;;;62.97;39.03;;;2.10;99.90;;;;;;5050585;28;20033;-59
2023/02/15 07:08:26;;;;;;;56.53;38.47;;;2.20;99.90;;;;;;5053652;28;20037;-59
2023/02/15 07:10:53;;;;;;;64.05;39.70;;;2.20;99.90;;;;;;5052902;28;20513;-59
2023/02/15 07:13:19;;;;;;;56.33;37.65;;;2.00;99.90;;;;;;5054104;28;20059;-59
2023/02/15 07:15:46;;;;;;;55.85;37.05;;;2.00;99.90;;;;;;5054487;28;20049;-59
2023/02/15 07:18:12;;;;;;;62.17;38.42;;;2.10;99.90;;;;;;5054098;28;20060;-59
2023/02/15 07:20:40;;;;;;;56.17;37.78;;;2.20;99.90;;;;;;5053965;28;20084;-60
2023/02/15 07:23:05;;;;;;;56.85;36.25;;;2.20;99.90;;;;;;5053595;28;20480;-59
2023/02/15 07:25:31;;;;;;;57.70;35.85;;;2.20;99.90;;;;;;5055398;28;20119;-59
2023/02/15 07:27:57;;;;;;;55.00;36.10;;;2.40;99.90;;;;;;5052211;28;20033;-59
2023/02/15 07:30:24;;;;;;;52.30;35.67;;;2.20;99.90;;;;;;5053121;28;20029;-59
2023/02/15 07:35:33;;;;;;;51.25;34.15;;;2.50;99.90;;;;;;5056744;28;20051;-59
2023/02/15 07:38:00;;;;;;;53.55;35.85;;;2.60;99.90;;;;;;5055843;28;20049;-60
2023/02/15 07:40:26;;;;;;;53.72;35.80;;;2.80;99.90;;;;;;5053374;28;20036;-60
2023/02/15 07:42:56;;;;;;;52.65;35.10;;;2.90;99.90;;;;;;5053657;28;20049;-61
2023/02/15 07:45:21;;;;;;;52.55;34.13;;;3.00;99.90;;;;;;5052798;28;20436;-59
2023/02/15 07:47:47;;;;;;;49.38;34.35;;;2.90;99.90;;;;;;5057404;28;20090;-60
2023/02/15 07:50:13;;;;;;;50.33;32.95;;;3.10;99.90;;;;;;5053815;28;20044;-60
2023/02/15 07:52:39;;;;;;;49.05;33.90;;;3.30;99.90;;;;;;5067091;28;20032;-61
2023/02/15 07:55:05;;;;;;;47.22;33.22;;;3.50;99.90;;;;;;5072804;28;20036;-61
2023/02/15 07:57:30;;;;;;;47.08;32.55;;;3.60;99.90;;;;;;5057761;28;20368;-60
2023/02/15 07:59:56;;;;;;;42.38;30.65;;;3.80;99.90;;;;;;5052761;28;20094;-60
2023/02/15 08:02:22;;;;;;;44.65;30.48;;;3.90;99.90;;;;;;5051424;28;20037;-59
2023/02/15 08:04:47;;;;;;;46.97;31.25;;;3.90;99.90;;;;;;5055192;28;20033;-59
2023/02/15 08:07:13;;;;;;;42.88;30.52;;;4.00;99.90;;;;;;5056972;28;20037;-60
2023/02/15 08:09:38;;;;;;;42.42;28.77;;;4.20;99.90;;;;;;5052750;28;20094;-59
2023/02/15 08:12:04;;;;;;;43.13;30.33;;;4.30;99.90;;;;;;5052175;28;20040;-59
2023/02/15 08:14:32;;;;;;;41.85;30.45;;;4.30;99.90;;;;;;5053019;28;20446;-60
2023/02/15 08:17:02;;;;;;;43.97;29.45;;;4.40;99.90;;;;;;5051469;28;20045;-60
2023/02/15 08:19:30;;;;;;;42.80;29.73;;;4.60;99.90;;;;;;5052734;28;20057;-60
2023/02/15 08:22:05;;;;;;;40.55;28.65;;;4.80;99.90;;;;;;5052535;28;20053;-60
2023/02/15 08:24:33;;;;;;;40.17;27.13;;;4.90;99.90;;;;;;5053253;28;20064;-60
2023/02/15 08:26:59;;;;;;;36.53;27.65;;;5.10;99.90;;;;;;5053120;28;20087;-60
2023/02/15 08:29:27;;;;;;;38.38;26.67;;;5.30;99.90;;;;;;5052932;28;20472;-61
2023/02/15 08:31:58;;;;;;;38.20;25.92;;;5.50;99.90;;;;;;5051002;28;20053;-61
2023/02/15 08:34:24;;;;;;;35.97;26.25;;;5.60;99.90;;;;;;5049715;28;20445;-60
2023/02/15 08:36:50;;;;;;;42.65;27.17;;;5.80;99.90;;;;;;5052346;28;20041;-61
2023/02/15 08:39:16;;;;;;;33.92;24.23;;;5.70;99.90;;;;;;5052689;28;20395;-60
2023/02/15 08:41:44;;;;;;;33.45;24.90;;;5.80;99.90;;;;;;5052504;28;20040;-61
2023/02/15 08:44:11;;;;;;;35.85;24.17;;;5.90;99.90;;;;;;5052395;28;20041;-61
2023/02/15 08:46:41;;;;;;;31.83;24.02;;;5.90;99.90;;;;;;5052405;28;20067;-61
2023/02/15 08:49:08;;;;;;;33.50;23.42;;;6.00;99.90;;;;;;5052163;28;20076;-60
2023/02/15 08:51:37;;;;;;;35.30;24.48;;;6.20;99.90;;;;;;5052470;28;20037;-60
2023/02/15 08:54:08;;;;;;;34.97;25.83;;;6.50;99.90;;;;;;5052312;28;20127;-61
2023/02/15 08:56:37;;;;;;;34.20;24.10;;;6.30;99.90;;;;;;5052459;28;20040;-60
2023/02/15 08:59:04;;;;;;;34.47;24.85;;;6.50;99.90;;;;;;5052203;28;20037;-60
2023/02/15 09:01:32;;;;;;;35.53;24.15;;;6.60;99.90;;;;;;5051229;28;20052;-60
2023/02/15 09:04:09;;;;;;;33.20;23.10;;;6.70;99.90;;;;;;5052029;28;20119;-60
2023/02/15 09:06:37;;;;;;;32.65;23.83;;;6.70;99.90;;;;;;5051973;28;20044;-60
2023/02/15 09:09:03;;;;;;;34.58;24.08;;;6.80;99.90;;;;;;5051414;28;20138;-60
2023/02/15 09:11:33;;;;;;;30.45;23.08;;;6.90;99.90;;;;;;5052310;28;20052;-60
2023/02/15 09:14:05;;;;;;;32.72;23.83;;;6.90;99.90;;;;;;5051723;28;20570;-60
2023/02/15 09:16:33;;;;;;;36.53;25.05;;;7.00;99.90;;;;;;5052128;28;20059;-61
2023/02/15 09:19:00;;;;;;;34.92;24.17;;;6.90;99.90;;;;;;5051626;28;20495;-60
2023/02/15 09:21:27;;;;;;;31.35;23.77;;;6.80;99.90;;;;;;5051782;28;20055;-60
2023/02/15 09:23:57;;;;;;;36.17;24.38;;;6.70;99.90;;;;;;5051984;28;20395;-60
2023/02/15 09:26:24;;;;;;;34.58;25.42;;;6.80;99.90;;;;;;5051676;28;20511;-60
2023/02/15 09:28:58;;;;;;;38.88;25.45;;;6.70;99.90;;;;;;5051638;28;20036;-60
2023/02/15 09:31:30;;;;;;;38.28;24.92;;;6.70;99.90;;;;;;5051682;28;20116;-60
2023/02/15 09:33:57;;;;;;;32.88;23.27;;;6.80;99.90;;;;;;5051656;28;20033;-60
2023/02/15 09:36:24;;;;;;;33.55;24.65;;;7.00;99.90;;;;;;5051746;28;20056;-60
2023/02/15 09:39:05;;;;;;;34.13;24.48;;;7.20;99.90;;;;;;5051545;28;20502;-61
2023/02/15 09:41:52;;;;;;;36.53;24.20;;;7.30;99.90;;;;;;5052041;28;20045;-60
2023/02/15 09:44:42;;;;;;;36.30;25.05;;;7.20;99.90;;;;;;5051803;28;20044;-60
2023/02/15 09:47:19;;;;;;;34.70;24.48;;;7.30;99.90;;;;;;5051847;28;20040;-61
2023/02/15 09:50:21;;;;;;;38.15;25.10;;;7.30;99.90;;;;;;5050569;28;20380;-60
2023/02/15 09:53:05;;;;;;;35.40;25.30;;;7.40;99.90;;;;;;5051655;28;20045;-61
2023/02/15 09:55:33;;;;;;;37.13;23.40;;;7.30;99.90;;;;;;5051885;28;20474;-60
2023/02/15 09:58:20;;;;;;;38.97;25.27;;;7.40;99.90;;;;;;5051497;28;20071;-60
2023/02/15 10:01:00;;;;;;;34.47;24.27;;;7.30;99.90;;;;;;5051978;28;20471;-60
2023/02/15 10:03:55;;;;;;;35.92;25.02;;;7.50;99.90;;;;;;5051765;28;20498;-60
2023/02/15 10:06:44;;;;;;;36.13;24.98;;;7.60;99.90;;;;;;5051485;28;20098;-61
2023/02/15 10:09:34;;;;;;;37.15;26.27;;;7.80;99.90;;;;;;5051643;28;20037;-61
2023/02/15 10:12:32;;;;;;;40.28;26.08;;;7.70;99.90;;;;;;5050083;28;20045;-60
2023/02/15 10:15:13;;;;;;;31.40;23.48;;;7.70;99.90;;;;;;5051068;28;20495;-61
2023/02/15 10:17:41;;;;;;;35.78;26.23;;;7.90;99.90;;;;;;5051249;28;20037;-61
2023/02/15 10:20:28;;;;;;;37.15;25.10;;;7.90;99.90;;;;;;5053964;28;20057;-61
2023/02/15 10:23:29;;;;;;;35.88;26.05;;;7.90;99.90;;;;;;5054711;28;20044;-61
2023/02/15 10:26:19;;;;;;;37.22;24.67;;;8.00;99.90;;;;;;5055333;28;20044;-60
2023/02/15 10:29:06;;;;;;;36.42;25.80;;;8.20;99.90;;;;;;5055856;28;20048;-60
2023/02/15 10:31:53;;;;;;;37.13;26.92;;;8.30;99.90;;;;;;5055159;28;20041;-61
2023/02/15 10:34:39;;;;;;;38.90;26.40;;;8.40;99.90;;;;;;5054931;28;20052;-61
2023/02/15 10:37:24;;;;;;;37.63;25.25;;;8.40;99.90;;;;;;5053689;28;20041;-61
2023/02/15 10:40:13;;;;;;;43.08;26.60;;;8.60;99.90;;;;;;5055114;28;20072;-61
2023/02/15 10:42:54;;;;;;;36.67;25.17;;;8.60;99.90;;;;;;5054734;28;20048;-61
2023/02/15 10:45:23;;;;;;;37.97;26.92;;;8.80;99.90;;;;;;5054555;28;20037;-61
2023/02/15 10:48:18;;;;;;;39.45;26.52;;;8.90;99.90;;;;;;5054787;28;20047;-61
2023/02/15 10:50:50;;;;;;;36.10;26.45;;;8.90;99.90;;;;;;5054725;28;20040;-61
2023/02/15 10:53:15;;;;;;;38.88;26.45;;;9.10;99.90;;;;;;5054972;28;20515;-60
2023/02/15 10:56:00;;;;;;;35.63;25.10;;;9.00;99.90;;;;;;5054352;28;20422;-60
2023/02/15 10:58:44;;;;;;;41.65;25.95;;;9.20;99.90;;;;;;5054302;28;20079;-60
2023/02/15 11:01:23;;;;;;;37.63;27.10;;;9.30;99.90;;;;;;5052873;28;20111;-60
2023/02/15 11:04:09;;;;;;;43.05;26.67;;;9.50;99.90;;;;;;5054263;28;20045;-60
2023/02/15 11:06:39;;;;;;;37.05;26.23;;;9.60;99.90;;;;;;5054543;28;20033;-60
2023/02/15 11:09:12;;;;;;;40.25;27.58;;;9.70;99.90;;;;;;5054361;28;20068;-61
2023/02/15 11:11:42;;;;;;;41.80;30.33;;;9.80;99.90;;;;;;5054146;28;20037;-61
2023/02/15 11:14:29;;;;;;;37.83;26.92;;;9.90;99.90;;;;;;5054147;28;20072;-61
2023/02/15 11:16:59;;;;;;;47.17;28.52;;;10.00;99.90;;;;;;5053941;28;20076;-61
2023/02/15 11:19:38;;;;;;;48.42;27.52;;;10.00;99.90;;;;;;5053924;28;20056;-61
2023/02/15 11:22:06;;;;;;;40.35;28.67;;;10.10;99.90;;;;;;5053766;28;20128;-61
2023/02/15 11:24:38;;;;;;;42.60;28.45;;;10.20;99.90;;;;;;5053736;28;20079;-61
2023/02/15 11:27:26;;;;;;;40.35;28.02;;;10.30;99.90;;;;;;5053807;28;20395;-61
2023/02/15 11:30:09;;;;;;;46.80;29.80;;;10.30;99.90;;;;;;5053373;28;20098;-60
2023/02/15 11:32:43;;;;;;;41.45;27.70;;;10.40;99.90;;;;;;5053718;28;20045;-61
2023/02/15 11:35:11;;;;;;;40.22;26.80;;;10.60;99.90;;;;;;5053685;28;20557;-60
2023/02/15 11:37:43;;;;;;;39.78;26.77;;;10.60;99.90;;;;;;5053677;28;20055;-61
2023/02/15 11:40:28;;;;;;;41.65;27.02;;;10.60;99.90;;;;;;5054104;28;20120;-61
2023/02/15 11:42:57;;;;;;;39.88;26.40;;;10.80;99.90;;;;;;5052229;28;20052;-61
2023/02/15 11:45:27;;;;;;;;;;;10.80;99.90;;;;;;5052539;28;20072;-62
2023/02/15 11:47:54;;;;;;;40.90;25.83;;;10.80;99.90;;;;;;5053984;28;19928;-62
2023/02/15 11:50:30;;;;;;;38.08;25.92;;;10.90;99.90;;;;;;5053747;28;20049;-61
2023/02/15 11:53:03;;;;;;;45.95;27.42;;;11.00;99.90;;;;;;5053506;28;20458;-61
2023/02/15 11:55:29;;;;;;;39.03;25.90;;;11.00;99.90;;;;;;5053484;28;20430;-61
2023/02/15 11:58:11;;;;;;;39.20;26.10;;;11.20;99.90;;;;;;5053372;28;20039;-61
2023/02/15 12:00:40;;;;;;;38.42;24.80;;;11.30;99.90;;;;;;5052176;28;20041;-61
2023/02/15 12:03:48;;;;;;;38.38;26.08;;;11.50;99.90;;;;;;5051730;28;20394;-61
2023/02/15 12:06:34;;;;;;;39.08;24.95;;;11.70;99.90;;;;;;5011318;28;20120;-61
2023/02/15 12:09:28;;;;;;;39.05;25.55;;;11.80;99.90;;;;;;5011269;28;20042;-61
2023/02/15 12:11:55;;;;;;;37.95;24.90;;;12.00;99.90;;;;;;5010976;28;20049;-62
2023/02/15 12:14:21;;;;;;;44.25;26.13;;;12.10;99.90;;;;;;5011121;28;20049;-61
2023/02/15 12:16:55;;;;;;;41.53;26.25;;;12.30;99.90;;;;;;5010920;28;20050;-61
2023/02/15 12:19:37;;;;;;;36.35;24.30;;;12.40;99.90;;;;;;5010970;28;20080;-62
2023/02/15 12:22:05;;;;;;;38.20;24.05;;;12.60;99.90;;;;;;4994466;28;20046;-62
2023/02/15 12:24:37;;;;;;;35.20;24.60;;;12.70;99.90;;;;;;5010819;28;20444;-61
2023/02/15 12:27:12;;;;;;;40.08;24.83;;;12.90;99.90;;;;;;5008415;28;20033;-61
2023/02/15 12:29:44;;;;;;;41.58;25.55;;;12.90;99.90;;;;;;5010868;28;20415;-62
2023/02/15 12:32:32;;;;;;;36.35;24.25;;;12.90;99.90;;;;;;5013307;28;20053;-62
2023/02/15 12:35:16;;;;;;;39.38;25.08;;;12.80;99.90;;;;;;5009510;28;20108;-61
2023/02/15 12:37:54;;;;;;;39.40;25.92;;;12.90;99.90;;;;;;5009566;28;20075;-60
2023/02/15 12:40:27;;;;;;;35.60;25.08;;;12.80;99.90;;;;;;5010487;28;20116;-60
2023/02/15 12:42:53;;;;;;;40.70;25.98;;;13.00;99.90;;;;;;5030878;28;20053;-61
2023/02/15 12:45:26;;;;;;;45.72;27.70;;;13.10;99.90;;;;;;5052814;28;20041;-60
2023/02/15 12:48:17;;;;;;;43.35;27.58;;;13.20;99.90;;;;;;5052542;28;20418;-60
2023/02/15 12:51:06;;;;;;;40.45;27.58;;;13.10;99.90;;;;;;5051667;28;20521;-60
2023/02/15 12:53:34;;;;;;;42.15;29.08;;;13.20;99.90;;;;;;5051620;28;20446;-59
2023/02/15 12:56:05;;;;;;;43.85;29.55;;;13.20;99.90;;;;;;5051555;28;20086;-59
2023/02/15 12:58:36;;;;;;;49.85;31.65;;;13.10;99.90;;;;;;5049734;28;20044;-59
2023/02/15 13:01:15;;;;;;;42.75;29.17;;;13.00;99.90;;;;;;5051493;28;20041;-59
2023/02/15 13:04:03;;;;;;;46.67;31.48;;;12.90;99.90;;;;;;5051777;28;20098;-60
2023/02/15 13:06:35;;;;;;;47.95;32.72;;;12.90;99.90;;;;;;5048119;28;20107;-59
2023/02/15 13:09:20;;;;;;;43.65;30.92;;;13.00;99.90;;;;;;5047577;28;20033;-59
2023/02/15 13:11:47;;;;;;;50.25;31.15;;;13.00;99.90;;;;;;5051389;28;20114;-60
2023/02/15 13:14:21;;;;;;;42.72;29.33;;;13.00;99.90;;;;;;5051804;28;20040;-60
2023/02/15 13:16:50;;;;;;;45.72;29.08;;;12.70;99.90;;;;;;5050132;28;20090;-60
2023/02/15 13:19:44;;;;;;;46.05;30.25;;;12.70;99.90;;;;;;5051761;28;20092;-60
2023/02/15 13:22:16;;;;;;;48.30;29.83;;;12.70;99.90;;;;;;5051360;28;20055;-60
2023/02/15 13:24:52;;;;;;;43.28;27.90;;;12.80;99.90;;;;;;5051163;28;20037;-60
2023/02/15 13:27:22;;;;;;;49.33;30.63;;;12.60;99.90;;;;;;5052107;28;20041;-60